sensor_id;sensor_type;location;lat;lon;timestamp;P1;durP1;ratioP1;P2;durP2;ratioP2
23747;SDS011;12054;53.662;10.126;2023-02-28T00:00:01;8.52;;;4.78;;
23747;SDS011;12054;53.662;10.126;2023-02-28T00:02:34;7.63;;;4.57;;
23747;SDS011;12054;53.662;10.126;2023-02-28T00:05:01;10.32;;;4.68;;
23747;SDS011;12054;53.662;10.126;2023-02-28T00:07:28;7.93;;;4.80;;
23747;SDS011;12054;53.662;10.126;2023-02-28T00:09:54;6.75;;;4.07;;
23747;SDS011;12054;53.662;10.126;2023-02-28T00:12:20;6.95;;;4.07;;
23747;SDS011;12054;53.662;10.126;2023-02-28T00:14:45;9.15;;;4.50;;
23747;SDS011;12054;53.662;10.126;2023-02-28T00:17:11;8.07;;;4.70;;
23747;SDS011;12054;53.662;10.126;2023-02-28T00:19:36;8.00;;;4.03;;
23747;SDS011;12054;53.662;10.126;2023-02-28T00:22:02;5.47;;;4.05;;
23747;SDS011;12054;53.662;10.126;2023-02-28T00:24:27;8.07;;;4.05;;
23747;SDS011;12054;53.662;10.126;2023-02-28T00:26:53;7.15;;;3.90;;
23747;SDS011;12054;53.662;10.126;2023-02-28T00:29:18;8.57;;;3.85;;
23747;SDS011;12054;53.662;10.126;2023-02-28T00:31:44;8.50;;;3.80;;
23747;SDS011;12054;53.662;10.126;2023-02-28T00:34:09;5.25;;;3.60;;
23747;SDS011;12054;53.662;10.126;2023-02-28T00:36:35;7.22;;;4.30;;
23747;SDS011;12054;53.662;10.126;2023-02-28T00:39:00;6.47;;;3.90;;
23747;SDS011;12054;53.662;10.126;2023-02-28T00:41:26;8.13;;;4.47;;
23747;SDS011;12054;53.662;10.126;2023-02-28T00:43:51;9.98;;;4.10;;
23747;SDS011;12054;53.662;10.126;2023-02-28T00:46:17;6.65;;;3.85;;
23747;SDS011;12054;53.662;10.126;2023-02-28T00:48:42;6.65;;;3.63;;
23747;SDS011;12054;53.662;10.126;2023-02-28T00:51:08;5.65;;;3.80;;
23747;SDS011;12054;53.662;10.126;2023-02-28T00:53:34;7.13;;;3.67;;
23747;SDS011;12054;53.662;10.126;2023-02-28T00:55:59;7.03;;;3.40;;
23747;SDS011;12054;53.662;10.126;2023-02-28T00:58:25;5.55;;;3.25;;
23747;SDS011;12054;53.662;10.126;2023-02-28T01:00:51;6.00;;;3.92;;
23747;SDS011;12054;53.662;10.126;2023-02-28T01:03:18;5.50;;;3.50;;
23747;SDS011;12054;53.662;10.126;2023-02-28T01:05:44;4.75;;;3.42;;
23747;SDS011;12054;53.662;10.126;2023-02-28T01:08:10;7.35;;;3.70;;
23747;SDS011;12054;53.662;10.126;2023-02-28T01:10:36;4.95;;;3.13;;
23747;SDS011;12054;53.662;10.126;2023-02-28T01:13:03;5.18;;;3.30;;
23747;SDS011;12054;53.662;10.126;2023-02-28T01:15:28;5.65;;;2.95;;
23747;SDS011;12054;53.662;10.126;2023-02-28T01:17:54;5.00;;;2.97;;
23747;SDS011;12054;53.662;10.126;2023-02-28T01:20:19;5.13;;;3.30;;
23747;SDS011;12054;53.662;10.126;2023-02-28T01:22:45;4.95;;;3.40;;
23747;SDS011;12054;53.662;10.126;2023-02-28T01:25:11;4.50;;;2.70;;
23747;SDS011;12054;53.662;10.126;2023-02-28T01:27:37;5.63;;;3.15;;
23747;SDS011;12054;53.662;10.126;2023-02-28T01:30:04;5.53;;;2.95;;
23747;SDS011;12054;53.662;10.126;2023-02-28T01:32:31;5.95;;;2.90;;
23747;SDS011;12054;53.662;10.126;2023-02-28T01:34:56;5.18;;;3.15;;
23747;SDS011;12054;53.662;10.126;2023-02-28T01:37:22;5.47;;;3.38;;
23747;SDS011;12054;53.662;10.126;2023-02-28T01:39:47;5.05;;;2.88;;
23747;SDS011;12054;53.662;10.126;2023-02-28T01:42:13;6.60;;;3.25;;
23747;SDS011;12054;53.662;10.126;2023-02-28T01:47:26;5.90;;;2.50;;
23747;SDS011;12054;53.662;10.126;2023-02-28T01:49:55;4.68;;;2.75;;
23747;SDS011;12054;53.662;10.126;2023-02-28T01:52:21;3.67;;;2.67;;
23747;SDS011;12054;53.662;10.126;2023-02-28T01:54:51;5.18;;;2.72;;
23747;SDS011;12054;53.662;10.126;2023-02-28T01:57:19;3.65;;;2.55;;
23747;SDS011;12054;53.662;10.126;2023-02-28T01:59:54;5.50;;;2.80;;
23747;SDS011;12054;53.662;10.126;2023-02-28T02:02:26;6.20;;;3.00;;
23747;SDS011;12054;53.662;10.126;2023-02-28T02:04:58;6.80;;;2.97;;
23747;SDS011;12054;53.662;10.126;2023-02-28T02:07:29;4.95;;;2.65;;
23747;SDS011;12054;53.662;10.126;2023-02-28T02:10:03;4.00;;;2.70;;
23747;SDS011;12054;53.662;10.126;2023-02-28T02:15:48;5.55;;;3.17;;
23747;SDS011;12054;53.662;10.126;2023-02-28T02:18:26;6.43;;;3.08;;
23747;SDS011;12054;53.662;10.126;2023-02-28T02:26:25;3.22;;;2.40;;
23747;SDS011;12054;53.662;10.126;2023-02-28T02:40:04;3.55;;;2.30;;
23747;SDS011;12054;53.662;10.126;2023-02-28T02:42:41;6.60;;;2.55;;
23747;SDS011;12054;53.662;10.126;2023-02-28T02:45:15;5.50;;;2.63;;
23747;SDS011;12054;53.662;10.126;2023-02-28T02:48:00;4.97;;;3.05;;
23747;SDS011;12054;53.662;10.126;2023-02-28T02:50:33;4.72;;;2.80;;
23747;SDS011;12054;53.662;10.126;2023-02-28T02:53:03;6.28;;;2.70;;
23747;SDS011;12054;53.662;10.126;2023-02-28T02:55:32;4.68;;;2.22;;
23747;SDS011;12054;53.662;10.126;2023-02-28T02:58:02;8.75;;;2.63;;
23747;SDS011;12054;53.662;10.126;2023-02-28T03:00:34;6.13;;;2.22;;
23747;SDS011;12054;53.662;10.126;2023-02-28T03:03:04;4.40;;;2.42;;
23747;SDS011;12054;53.662;10.126;2023-02-28T03:05:48;4.45;;;2.38;;
23747;SDS011;12054;53.662;10.126;2023-02-28T03:08:15;5.28;;;2.47;;
23747;SDS011;12054;53.662;10.126;2023-02-28T03:10:45;5.80;;;2.40;;
23747;SDS011;12054;53.662;10.126;2023-02-28T03:16:08;3.22;;;2.20;;
23747;SDS011;12054;53.662;10.126;2023-02-28T03:21:32;4.45;;;2.08;;
23747;SDS011;12054;53.662;10.126;2023-02-28T03:27:25;2.60;;;1.95;;
23747;SDS011;12054;53.662;10.126;2023-02-28T03:30:04;3.75;;;2.05;;
23747;SDS011;12054;53.662;10.126;2023-02-28T03:38:05;3.53;;;2.00;;
23747;SDS011;12054;53.662;10.126;2023-02-28T03:40:38;5.50;;;2.60;;
23747;SDS011;12054;53.662;10.126;2023-02-28T03:43:09;4.72;;;2.10;;
23747;SDS011;12054;53.662;10.126;2023-02-28T03:45:39;5.25;;;2.10;;
23747;SDS011;12054;53.662;10.126;2023-02-28T03:48:18;3.50;;;2.10;;
23747;SDS011;12054;53.662;10.126;2023-02-28T03:50:49;3.83;;;2.22;;
23747;SDS011;12054;53.662;10.126;2023-02-28T03:55:55;4.25;;;2.15;;
23747;SDS011;12054;53.662;10.126;2023-02-28T04:01:28;2.80;;;1.90;;
23747;SDS011;12054;53.662;10.126;2023-02-28T04:04:01;4.53;;;2.53;;
23747;SDS011;12054;53.662;10.126;2023-02-28T04:06:27;5.43;;;2.80;;
23747;SDS011;12054;53.662;10.126;2023-02-28T04:08:56;13.15;;;8.35;;
23747;SDS011;12054;53.662;10.126;2023-02-28T04:11:35;12.25;;;6.60;;
23747;SDS011;12054;53.662;10.126;2023-02-28T04:14:10;6.43;;;2.90;;
23747;SDS011;12054;53.662;10.126;2023-02-28T04:16:37;4.40;;;2.67;;
23747;SDS011;12054;53.662;10.126;2023-02-28T04:19:05;5.22;;;2.67;;
23747;SDS011;12054;53.662;10.126;2023-02-28T04:21:32;5.60;;;2.25;;
23747;SDS011;12054;53.662;10.126;2023-02-28T04:23:59;3.70;;;2.30;;
23747;SDS011;12054;53.662;10.126;2023-02-28T04:26:27;4.53;;;2.45;;
23747;SDS011;12054;53.662;10.126;2023-02-28T04:28:54;3.60;;;2.13;;
23747;SDS011;12054;53.662;10.126;2023-02-28T04:31:20;4.35;;;2.03;;
23747;SDS011;12054;53.662;10.126;2023-02-28T04:33:46;4.65;;;2.08;;
23747;SDS011;12054;53.662;10.126;2023-02-28T04:36:11;4.20;;;2.30;;
23747;SDS011;12054;53.662;10.126;2023-02-28T04:38:38;7.00;;;2.40;;
23747;SDS011;12054;53.662;10.126;2023-02-28T04:41:04;3.90;;;1.92;;
23747;SDS011;12054;53.662;10.126;2023-02-28T04:43:30;5.75;;;2.22;;
23747;SDS011;12054;53.662;10.126;2023-02-28T04:45:56;4.50;;;2.50;;
23747;SDS011;12054;53.662;10.126;2023-02-28T04:48:23;4.00;;;2.15;;
23747;SDS011;12054;53.662;10.126;2023-02-28T04:50:50;4.55;;;2.55;;
23747;SDS011;12054;53.662;10.126;2023-02-28T04:53:17;4.18;;;2.25;;
23747;SDS011;12054;53.662;10.126;2023-02-28T04:55:43;3.72;;;2.08;;
23747;SDS011;12054;53.662;10.126;2023-02-28T04:58:09;3.80;;;2.13;;
23747;SDS011;12054;53.662;10.126;2023-02-28T05:00:34;6.13;;;2.38;;
23747;SDS011;12054;53.662;10.126;2023-02-28T05:03:00;4.35;;;2.13;;
23747;SDS011;12054;53.662;10.126;2023-02-28T05:05:25;4.55;;;2.40;;
23747;SDS011;12054;53.662;10.126;2023-02-28T05:07:51;4.20;;;2.30;;
23747;SDS011;12054;53.662;10.126;2023-02-28T05:10:16;5.03;;;2.50;;
23747;SDS011;12054;53.662;10.126;2023-02-28T05:12:42;6.68;;;3.40;;
23747;SDS011;12054;53.662;10.126;2023-02-28T05:15:08;7.03;;;3.25;;
23747;SDS011;12054;53.662;10.126;2023-02-28T05:17:38;5.65;;;2.85;;
23747;SDS011;12054;53.662;10.126;2023-02-28T05:20:03;4.90;;;2.80;;
23747;SDS011;12054;53.662;10.126;2023-02-28T05:22:29;6.00;;;2.90;;
23747;SDS011;12054;53.662;10.126;2023-02-28T05:24:55;7.53;;;3.00;;
23747;SDS011;12054;53.662;10.126;2023-02-28T05:27:21;5.35;;;2.25;;
23747;SDS011;12054;53.662;10.126;2023-02-28T05:29:46;5.35;;;2.50;;
23747;SDS011;12054;53.662;10.126;2023-02-28T05:32:12;5.18;;;2.75;;
23747;SDS011;12054;53.662;10.126;2023-02-28T05:34:38;3.65;;;2.40;;
23747;SDS011;12054;53.662;10.126;2023-02-28T05:37:04;5.13;;;2.63;;
23747;SDS011;12054;53.662;10.126;2023-02-28T05:39:31;4.72;;;2.40;;
23747;SDS011;12054;53.662;10.126;2023-02-28T05:41:57;6.28;;;2.72;;
23747;SDS011;12054;53.662;10.126;2023-02-28T05:44:22;6.80;;;3.50;;
23747;SDS011;12054;53.662;10.126;2023-02-28T05:46:48;6.10;;;3.30;;
23747;SDS011;12054;53.662;10.126;2023-02-28T05:49:13;5.55;;;2.63;;
23747;SDS011;12054;53.662;10.126;2023-02-28T05:51:39;4.05;;;2.55;;
23747;SDS011;12054;53.662;10.126;2023-02-28T05:54:05;5.03;;;3.00;;
23747;SDS011;12054;53.662;10.126;2023-02-28T05:56:31;4.97;;;2.63;;
23747;SDS011;12054;53.662;10.126;2023-02-28T05:58:59;9.07;;;2.63;;
23747;SDS011;12054;53.662;10.126;2023-02-28T06:04:05;7.10;;;2.78;;
23747;SDS011;12054;53.662;10.126;2023-02-28T06:06:32;5.18;;;3.17;;
23747;SDS011;12054;53.662;10.126;2023-02-28T06:09:02;3.70;;;2.22;;
23747;SDS011;12054;53.662;10.126;2023-02-28T06:11:31;6.43;;;3.58;;
23747;SDS011;12054;53.662;10.126;2023-02-28T06:13:57;7.25;;;3.47;;
23747;SDS011;12054;53.662;10.126;2023-02-28T06:16:24;6.53;;;2.97;;
23747;SDS011;12054;53.662;10.126;2023-02-28T06:18:51;7.60;;;3.58;;
23747;SDS011;12054;53.662;10.126;2023-02-28T06:21:17;4.70;;;3.20;;
23747;SDS011;12054;53.662;10.126;2023-02-28T06:23:43;5.15;;;3.40;;
23747;SDS011;12054;53.662;10.126;2023-02-28T06:26:09;9.23;;;4.00;;
23747;SDS011;12054;53.662;10.126;2023-02-28T06:28:35;6.82;;;3.90;;
23747;SDS011;12054;53.662;10.126;2023-02-28T06:31:05;7.47;;;3.28;;
23747;SDS011;12054;53.662;10.126;2023-02-28T06:33:36;6.38;;;3.70;;
23747;SDS011;12054;53.662;10.126;2023-02-28T06:36:03;6.10;;;3.92;;
23747;SDS011;12054;53.662;10.126;2023-02-28T06:38:30;7.60;;;3.65;;
23747;SDS011;12054;53.662;10.126;2023-02-28T06:40:56;8.40;;;3.88;;
23747;SDS011;12054;53.662;10.126;2023-02-28T06:43:24;7.45;;;3.50;;
23747;SDS011;12054;53.662;10.126;2023-02-28T06:45:50;7.75;;;3.92;;
23747;SDS011;12054;53.662;10.126;2023-02-28T06:48:19;6.28;;;3.97;;
23747;SDS011;12054;53.662;10.126;2023-02-28T06:50:45;7.20;;;4.07;;
23747;SDS011;12054;53.662;10.126;2023-02-28T06:53:11;6.53;;;3.60;;
23747;SDS011;12054;53.662;10.126;2023-02-28T06:55:37;6.65;;;3.95;;
23747;SDS011;12054;53.662;10.126;2023-02-28T06:58:04;6.30;;;3.95;;
23747;SDS011;12054;53.662;10.126;2023-02-28T07:00:39;6.93;;;3.67;;
23747;SDS011;12054;53.662;10.126;2023-02-28T07:03:06;6.88;;;3.80;;
23747;SDS011;12054;53.662;10.126;2023-02-28T07:05:31;10.73;;;4.28;;
23747;SDS011;12054;53.662;10.126;2023-02-28T07:07:59;6.95;;;4.20;;
23747;SDS011;12054;53.662;10.126;2023-02-28T07:10:24;7.35;;;3.92;;
23747;SDS011;12054;53.662;10.126;2023-02-28T07:12:50;5.85;;;3.90;;
23747;SDS011;12054;53.662;10.126;2023-02-28T07:15:16;7.85;;;4.32;;
23747;SDS011;12054;53.662;10.126;2023-02-28T07:17:41;7.03;;;4.07;;
23747;SDS011;12054;53.662;10.126;2023-02-28T07:20:07;9.57;;;4.88;;
23747;SDS011;12054;53.662;10.126;2023-02-28T07:22:33;9.38;;;4.38;;
23747;SDS011;12054;53.662;10.126;2023-02-28T07:24:59;7.85;;;3.53;;
23747;SDS011;12054;53.662;10.126;2023-02-28T07:27:24;8.13;;;4.85;;
23747;SDS011;12054;53.662;10.126;2023-02-28T07:29:50;8.20;;;4.60;;
23747;SDS011;12054;53.662;10.126;2023-02-28T07:32:16;9.70;;;5.40;;
23747;SDS011;12054;53.662;10.126;2023-02-28T07:34:41;9.80;;;5.32;;
23747;SDS011;12054;53.662;10.126;2023-02-28T07:37:07;11.15;;;5.40;;
23747;SDS011;12054;53.662;10.126;2023-02-28T07:39:32;8.70;;;5.28;;
23747;SDS011;12054;53.662;10.126;2023-02-28T07:41:58;12.10;;;4.95;;
23747;SDS011;12054;53.662;10.126;2023-02-28T07:44:24;10.27;;;5.28;;
23747;SDS011;12054;53.662;10.126;2023-02-28T07:46:50;9.00;;;5.07;;
23747;SDS011;12054;53.662;10.126;2023-02-28T07:49:17;9.40;;;4.90;;
23747;SDS011;12054;53.662;10.126;2023-02-28T07:51:43;7.53;;;4.50;;
23747;SDS011;12054;53.662;10.126;2023-02-28T07:54:08;7.97;;;5.20;;
23747;SDS011;12054;53.662;10.126;2023-02-28T07:56:34;7.68;;;4.53;;
23747;SDS011;12054;53.662;10.126;2023-02-28T07:58:59;8.30;;;5.45;;
23747;SDS011;12054;53.662;10.126;2023-02-28T08:01:26;9.68;;;5.20;;
23747;SDS011;12054;53.662;10.126;2023-02-28T08:03:52;10.68;;;5.10;;
23747;SDS011;12054;53.662;10.126;2023-02-28T08:06:21;13.88;;;4.82;;
23747;SDS011;12054;53.662;10.126;2023-02-28T08:08:47;8.20;;;4.53;;
23747;SDS011;12054;53.662;10.126;2023-02-28T08:11:14;11.23;;;5.00;;
23747;SDS011;12054;53.662;10.126;2023-02-28T08:13:40;8.95;;;5.22;;
23747;SDS011;12054;53.662;10.126;2023-02-28T08:16:07;9.05;;;5.50;;
23747;SDS011;12054;53.662;10.126;2023-02-28T08:18:32;12.90;;;5.40;;
23747;SDS011;12054;53.662;10.126;2023-02-28T08:20:58;8.35;;;5.03;;
23747;SDS011;12054;53.662;10.126;2023-02-28T08:23:24;9.45;;;5.07;;
23747;SDS011;12054;53.662;10.126;2023-02-28T08:25:53;12.23;;;5.03;;
23747;SDS011;12054;53.662;10.126;2023-02-28T08:28:20;7.70;;;4.68;;
23747;SDS011;12054;53.662;10.126;2023-02-28T08:30:45;12.18;;;5.43;;
23747;SDS011;12054;53.662;10.126;2023-02-28T08:33:11;6.97;;;4.32;;
23747;SDS011;12054;53.662;10.126;2023-02-28T08:35:36;8.43;;;4.32;;
23747;SDS011;12054;53.662;10.126;2023-02-28T08:38:02;8.63;;;4.30;;
23747;SDS011;12054;53.662;10.126;2023-02-28T08:40:28;7.28;;;3.60;;
23747;SDS011;12054;53.662;10.126;2023-02-28T08:42:53;5.28;;;3.25;;
23747;SDS011;12054;53.662;10.126;2023-02-28T08:45:19;6.70;;;3.45;;
23747;SDS011;12054;53.662;10.126;2023-02-28T08:47:45;7.40;;;3.65;;
23747;SDS011;12054;53.662;10.126;2023-02-28T08:50:11;6.55;;;3.58;;
23747;SDS011;12054;53.662;10.126;2023-02-28T08:52:39;7.00;;;3.85;;
23747;SDS011;12054;53.662;10.126;2023-02-28T08:55:08;8.10;;;4.00;;
23747;SDS011;12054;53.662;10.126;2023-02-28T08:57:34;6.97;;;3.72;;
23747;SDS011;12054;53.662;10.126;2023-02-28T09:00:00;6.07;;;3.30;;
23747;SDS011;12054;53.662;10.126;2023-02-28T09:02:29;7.05;;;3.80;;
23747;SDS011;12054;53.662;10.126;2023-02-28T09:04:55;4.68;;;3.45;;
23747;SDS011;12054;53.662;10.126;2023-02-28T09:07:20;6.78;;;3.17;;
23747;SDS011;12054;53.662;10.126;2023-02-28T09:09:46;6.72;;;3.30;;
23747;SDS011;12054;53.662;10.126;2023-02-28T09:12:21;5.82;;;3.25;;
23747;SDS011;12054;53.662;10.126;2023-02-28T09:14:47;5.50;;;3.10;;
23747;SDS011;12054;53.662;10.126;2023-02-28T09:17:12;5.72;;;3.13;;
23747;SDS011;12054;53.662;10.126;2023-02-28T09:19:38;3.90;;;2.83;;
23747;SDS011;12054;53.662;10.126;2023-02-28T09:22:03;4.53;;;2.97;;
23747;SDS011;12054;53.662;10.126;2023-02-28T09:24:29;4.75;;;2.92;;
23747;SDS011;12054;53.662;10.126;2023-02-28T09:26:56;3.90;;;2.53;;
23747;SDS011;12054;53.662;10.126;2023-02-28T09:29:22;4.50;;;2.33;;
23747;SDS011;12054;53.662;10.126;2023-02-28T09:31:47;5.03;;;3.05;;
23747;SDS011;12054;53.662;10.126;2023-02-28T09:34:13;4.70;;;2.70;;
23747;SDS011;12054;53.662;10.126;2023-02-28T09:36:39;4.68;;;3.00;;
23747;SDS011;12054;53.662;10.126;2023-02-28T09:39:04;5.30;;;2.95;;
23747;SDS011;12054;53.662;10.126;2023-02-28T09:41:37;3.72;;;2.40;;
23747;SDS011;12054;53.662;10.126;2023-02-28T09:44:12;4.32;;;2.70;;
23747;SDS011;12054;53.662;10.126;2023-02-28T09:46:45;3.45;;;2.38;;
23747;SDS011;12054;53.662;10.126;2023-02-28T09:49:17;4.22;;;2.50;;
23747;SDS011;12054;53.662;10.126;2023-02-28T09:51:51;4.25;;;2.50;;
23747;SDS011;12054;53.662;10.126;2023-02-28T09:54:21;5.35;;;2.35;;
23747;SDS011;12054;53.662;10.126;2023-02-28T09:56:53;3.97;;;2.22;;
23747;SDS011;12054;53.662;10.126;2023-02-28T10:05:13;3.15;;;2.40;;
23747;SDS011;12054;53.662;10.126;2023-02-28T10:07:50;3.28;;;2.50;;
23747;SDS011;12054;53.662;10.126;2023-02-28T10:10:30;5.85;;;2.90;;
23747;SDS011;12054;53.662;10.126;2023-02-28T10:13:01;5.43;;;2.85;;
23747;SDS011;12054;53.662;10.126;2023-02-28T10:15:30;7.00;;;3.58;;
23747;SDS011;12054;53.662;10.126;2023-02-28T10:18:00;3.60;;;2.50;;
23747;SDS011;12054;53.662;10.126;2023-02-28T10:20:30;3.95;;;2.40;;
23747;SDS011;12054;53.662;10.126;2023-02-28T10:25:37;5.35;;;2.63;;
23747;SDS011;12054;53.662;10.126;2023-02-28T10:28:11;4.60;;;2.55;;
23747;SDS011;12054;53.662;10.126;2023-02-28T10:30:42;5.53;;;2.60;;
23747;SDS011;12054;53.662;10.126;2023-02-28T10:33:17;4.65;;;2.53;;
23747;SDS011;12054;53.662;10.126;2023-02-28T10:36:04;3.22;;;2.50;;
23747;SDS011;12054;53.662;10.126;2023-02-28T10:38:35;4.95;;;2.50;;
23747;SDS011;12054;53.662;10.126;2023-02-28T10:44:11;4.10;;;2.45;;
23747;SDS011;12054;53.662;10.126;2023-02-28T10:46:39;3.33;;;2.17;;
23747;SDS011;12054;53.662;10.126;2023-02-28T10:49:11;7.40;;;2.60;;
23747;SDS011;12054;53.662;10.126;2023-02-28T10:51:40;3.50;;;2.47;;
23747;SDS011;12054;53.662;10.126;2023-02-28T10:54:14;4.88;;;2.70;;
23747;SDS011;12054;53.662;10.126;2023-02-28T10:56:45;3.65;;;2.38;;
23747;SDS011;12054;53.662;10.126;2023-02-28T10:59:30;4.38;;;2.45;;
23747;SDS011;12054;53.662;10.126;2023-02-28T11:01:56;3.55;;;2.50;;
23747;SDS011;12054;53.662;10.126;2023-02-28T11:12:04;3.20;;;2.47;;
23747;SDS011;12054;53.662;10.126;2023-02-28T11:14:33;3.47;;;2.20;;
23747;SDS011;12054;53.662;10.126;2023-02-28T11:17:12;2.90;;;2.28;;
23747;SDS011;12054;53.662;10.126;2023-02-28T11:19:48;3.85;;;2.70;;
23747;SDS011;12054;53.662;10.126;2023-02-28T11:22:23;3.40;;;2.33;;
23747;SDS011;12054;53.662;10.126;2023-02-28T11:24:53;2.88;;;2.40;;
23747;SDS011;12054;53.662;10.126;2023-02-28T11:27:26;3.72;;;2.35;;
23747;SDS011;12054;53.662;10.126;2023-02-28T11:29:55;5.93;;;2.30;;
23747;SDS011;12054;53.662;10.126;2023-02-28T11:32:21;4.63;;;2.40;;
23747;SDS011;12054;53.662;10.126;2023-02-28T11:37:51;4.30;;;2.45;;
23747;SDS011;12054;53.662;10.126;2023-02-28T11:40:18;4.65;;;2.30;;
23747;SDS011;12054;53.662;10.126;2023-02-28T11:42:57;3.70;;;2.25;;
23747;SDS011;12054;53.662;10.126;2023-02-28T11:45:45;3.95;;;2.20;;
23747;SDS011;12054;53.662;10.126;2023-02-28T11:51:21;4.25;;;2.38;;
23747;SDS011;12054;53.662;10.126;2023-02-28T11:56:43;4.05;;;2.50;;
23747;SDS011;12054;53.662;10.126;2023-02-28T11:59:20;3.47;;;2.47;;
23747;SDS011;12054;53.662;10.126;2023-02-28T12:07:46;3.13;;;2.05;;
23747;SDS011;12054;53.662;10.126;2023-02-28T12:13:26;5.85;;;2.50;;
23747;SDS011;12054;53.662;10.126;2023-02-28T12:18:55;2.92;;;2.38;;
23747;SDS011;12054;53.662;10.126;2023-02-28T12:22:12;3.33;;;2.53;;
23747;SDS011;12054;53.662;10.126;2023-02-28T12:27:00;4.28;;;2.45;;
23747;SDS011;12054;53.662;10.126;2023-02-28T12:29:32;3.55;;;2.67;;
23747;SDS011;12054;53.662;10.126;2023-02-28T12:32:06;3.63;;;2.22;;
23747;SDS011;12054;53.662;10.126;2023-02-28T12:34:55;4.47;;;2.30;;
23747;SDS011;12054;53.662;10.126;2023-02-28T12:37:34;4.10;;;2.42;;
23747;SDS011;12054;53.662;10.126;2023-02-28T12:40:12;6.60;;;2.67;;
23747;SDS011;12054;53.662;10.126;2023-02-28T12:42:45;3.25;;;2.40;;
23747;SDS011;12054;53.662;10.126;2023-02-28T12:45:24;4.70;;;2.40;;
23747;SDS011;12054;53.662;10.126;2023-02-28T12:48:04;4.25;;;2.38;;
23747;SDS011;12054;53.662;10.126;2023-02-28T12:50:33;3.70;;;2.47;;
23747;SDS011;12054;53.662;10.126;2023-02-28T13:01:22;4.53;;;2.20;;
23747;SDS011;12054;53.662;10.126;2023-02-28T13:07:10;5.40;;;2.72;;
23747;SDS011;12054;53.662;10.126;2023-02-28T13:09:58;5.13;;;2.47;;
23747;SDS011;12054;53.662;10.126;2023-02-28T13:12:26;3.50;;;2.30;;
23747;SDS011;12054;53.662;10.126;2023-02-28T13:17:47;4.13;;;2.30;;
23747;SDS011;12054;53.662;10.126;2023-02-28T13:20:15;2.88;;;2.15;;
23747;SDS011;12054;53.662;10.126;2023-02-28T13:22:46;4.43;;;2.47;;
23747;SDS011;12054;53.662;10.126;2023-02-28T13:27:48;4.07;;;2.35;;
23747;SDS011;12054;53.662;10.126;2023-02-28T13:33:30;6.03;;;2.20;;
23747;SDS011;12054;53.662;10.126;2023-02-28T13:38:49;4.65;;;1.70;;
23747;SDS011;12054;53.662;10.126;2023-02-28T13:43:59;2.85;;;1.67;;
23747;SDS011;12054;53.662;10.126;2023-02-28T13:46:25;1.60;;;1.40;;
23747;SDS011;12054;53.662;10.126;2023-02-28T13:48:51;3.08;;;1.67;;
23747;SDS011;12054;53.662;10.126;2023-02-28T13:51:27;2.08;;;1.40;;
23747;SDS011;12054;53.662;10.126;2023-02-28T13:54:20;3.25;;;1.90;;
23747;SDS011;12054;53.662;10.126;2023-02-28T13:57:04;4.28;;;1.70;;
23747;SDS011;12054;53.662;10.126;2023-02-28T14:02:23;2.97;;;1.70;;
23747;SDS011;12054;53.662;10.126;2023-02-28T14:07:40;3.78;;;1.80;;
23747;SDS011;12054;53.662;10.126;2023-02-28T14:10:19;3.80;;;2.00;;
23747;SDS011;12054;53.662;10.126;2023-02-28T14:12:51;3.22;;;1.73;;
23747;SDS011;12054;53.662;10.126;2023-02-28T14:15:30;3.80;;;1.95;;
23747;SDS011;12054;53.662;10.126;2023-02-28T14:18:22;3.97;;;2.10;;
23747;SDS011;12054;53.662;10.126;2023-02-28T14:23:40;2.60;;;1.95;;
23747;SDS011;12054;53.662;10.126;2023-02-28T14:26:31;2.85;;;1.90;;
23747;SDS011;12054;53.662;10.126;2023-02-28T14:31:44;3.25;;;2.15;;
23747;SDS011;12054;53.662;10.126;2023-02-28T14:34:39;3.22;;;2.22;;
23747;SDS011;12054;53.662;10.126;2023-02-28T14:37:15;3.20;;;2.30;;
23747;SDS011;12054;53.662;10.126;2023-02-28T14:39:45;3.22;;;2.00;;
23747;SDS011;12054;53.662;10.126;2023-02-28T14:44:57;5.03;;;2.30;;
23747;SDS011;12054;53.662;10.126;2023-02-28T14:47:23;3.58;;;2.13;;
23747;SDS011;12054;53.662;10.126;2023-02-28T14:49:53;3.05;;;2.47;;
23747;SDS011;12054;53.662;10.126;2023-02-28T14:52:20;3.53;;;2.53;;
23747;SDS011;12054;53.662;10.126;2023-02-28T14:54:55;4.35;;;2.40;;
23747;SDS011;12054;53.662;10.126;2023-02-28T14:57:32;3.55;;;2.20;;
23747;SDS011;12054;53.662;10.126;2023-02-28T15:00:13;3.33;;;2.53;;
23747;SDS011;12054;53.662;10.126;2023-02-28T15:02:42;2.85;;;2.15;;
23747;SDS011;12054;53.662;10.126;2023-02-28T15:07:42;6.00;;;3.20;;
23747;SDS011;12054;53.662;10.126;2023-02-28T15:10:10;6.10;;;2.83;;
23747;SDS011;12054;53.662;10.126;2023-02-28T15:12:40;4.15;;;2.88;;
23747;SDS011;12054;53.662;10.126;2023-02-28T15:15:14;5.57;;;3.38;;
23747;SDS011;12054;53.662;10.126;2023-02-28T15:17:41;5.07;;;3.55;;
23747;SDS011;12054;53.662;10.126;2023-02-28T15:20:14;5.68;;;3.42;;
23747;SDS011;12054;53.662;10.126;2023-02-28T15:22:41;5.15;;;3.03;;
23747;SDS011;12054;53.662;10.126;2023-02-28T15:25:09;5.55;;;3.35;;
23747;SDS011;12054;53.662;10.126;2023-02-28T15:27:39;7.30;;;3.72;;
23747;SDS011;12054;53.662;10.126;2023-02-28T15:30:15;7.03;;;3.75;;
23747;SDS011;12054;53.662;10.126;2023-02-28T15:33:02;6.15;;;3.85;;
23747;SDS011;12054;53.662;10.126;2023-02-28T15:35:42;5.40;;;3.80;;
23747;SDS011;12054;53.662;10.126;2023-02-28T15:38:25;5.53;;;3.92;;
23747;SDS011;12054;53.662;10.126;2023-02-28T15:40:56;8.20;;;3.80;;
23747;SDS011;12054;53.662;10.126;2023-02-28T15:43:30;6.22;;;3.65;;
23747;SDS011;12054;53.662;10.126;2023-02-28T15:46:04;5.60;;;3.13;;
23747;SDS011;12054;53.662;10.126;2023-02-28T15:48:34;4.13;;;2.40;;
23747;SDS011;12054;53.662;10.126;2023-02-28T15:51:09;5.55;;;2.75;;
23747;SDS011;12054;53.662;10.126;2023-02-28T15:53:50;4.95;;;2.65;;
23747;SDS011;12054;53.662;10.126;2023-02-28T15:58:56;2.55;;;1.95;;
23747;SDS011;12054;53.662;10.126;2023-02-28T16:01:25;3.22;;;2.25;;
23747;SDS011;12054;53.662;10.126;2023-02-28T16:03:55;3.55;;;2.20;;
23747;SDS011;12054;53.662;10.126;2023-02-28T16:06:39;2.83;;;2.10;;
23747;SDS011;12054;53.662;10.126;2023-02-28T16:09:13;3.45;;;2.28;;
23747;SDS011;12054;53.662;10.126;2023-02-28T16:11:45;4.90;;;2.30;;
23747;SDS011;12054;53.662;10.126;2023-02-28T16:14:15;3.53;;;2.40;;
23747;SDS011;12054;53.662;10.126;2023-02-28T16:16:44;3.88;;;2.80;;
23747;SDS011;12054;53.662;10.126;2023-02-28T16:19:11;5.60;;;2.60;;
23747;SDS011;12054;53.662;10.126;2023-02-28T16:21:37;4.45;;;2.72;;
23747;SDS011;12054;53.662;10.126;2023-02-28T16:24:02;4.15;;;2.50;;
23747;SDS011;12054;53.662;10.126;2023-02-28T16:26:28;4.53;;;2.80;;
23747;SDS011;12054;53.662;10.126;2023-02-28T16:28:53;5.00;;;2.90;;
23747;SDS011;12054;53.662;10.126;2023-02-28T16:31:19;4.38;;;2.50;;
23747;SDS011;12054;53.662;10.126;2023-02-28T16:33:45;4.35;;;2.28;;
23747;SDS011;12054;53.662;10.126;2023-02-28T16:36:18;4.78;;;2.80;;
23747;SDS011;12054;53.662;10.126;2023-02-28T16:38:46;3.97;;;2.60;;
23747;SDS011;12054;53.662;10.126;2023-02-28T16:41:12;5.07;;;2.60;;
23747;SDS011;12054;53.662;10.126;2023-02-28T16:43:43;3.70;;;2.50;;
23747;SDS011;12054;53.662;10.126;2023-02-28T16:46:13;6.55;;;2.80;;
23747;SDS011;12054;53.662;10.126;2023-02-28T16:48:39;4.68;;;2.60;;
23747;SDS011;12054;53.662;10.126;2023-02-28T16:51:06;3.83;;;2.17;;
23747;SDS011;12054;53.662;10.126;2023-02-28T16:53:36;4.13;;;2.42;;
23747;SDS011;12054;53.662;10.126;2023-02-28T16:56:01;3.35;;;2.28;;
23747;SDS011;12054;53.662;10.126;2023-02-28T16:58:27;4.10;;;2.60;;